-JavaCPC -demo -emu -j-cpc_ani -tools 0-9 A B C D E F G H I J K L M N O P Q R S T U V W X Y Z roms
FILEDATESIZEDLs
KTris by Richard Wilson (PD).zip 2017-04-21 16:14 2 Kb329
Kaiser (G) (19xx).zip 2017-04-21 16:13 91 Kb393
Kane & Nebulus & Renaud - Marche a l'Ombre.zip 2017-04-21 16:13 95 Kb241
Kane (UK) (1986).zip 2017-04-21 16:13 28 Kb348
Kane (UK) (1986) [a1].zip 2017-04-21 16:13 80 Kb351
Kane (UK) (1986) [a2].zip 2017-04-21 16:13 38 Kb318
Kane (UK) (1986) [t1].zip 2017-04-21 16:13 38 Kb351
Karateka (F) (1986).zip 2017-04-21 16:13 50 Kb338
Karateka (F) (1986) [f1].zip 2017-04-21 16:13 50 Kb347
Karateka (F) (1986) [t1].zip 2017-04-21 16:13 50 Kb335
Karateka (F) (1990).zip 2017-04-21 16:13 49 Kb327
Karateka (F) (1990) [t1].zip 2017-04-21 16:13 49 Kb336
Karateka (F).dsk 2017-04-21 16:13 192 Kb335
Karl's Treasure Hunt (UK) (1984).zip 2017-04-21 16:13 11 Kb342
Karl's Treasure Hunt (UK) (1984) [a1].zip 2017-04-21 16:13 84 Kb336
Karl's Treasure Hunt (UK) (1984) [a2].zip 2017-04-21 16:13 11 Kb326
Karnov (E) - Disk 1A.dsk 2017-04-21 16:13 214 Kb311
Karnov (E) - Disk 1B.dsk 2017-04-21 16:13 214 Kb307
Karnov (UK) (1988) (Disk 1 of 2).zip 2017-04-21 16:13 73 Kb276
Karnov (UK) (1988) (Disk 1 of 2) [a1].zip 2017-04-21 16:13 56 Kb273
Karnov (UK) (1988) (Disk 1 of 2) [t1].zip 2017-04-21 16:13 159 Kb285
Karnov (UK) (1988) (Disk 1 of 2) [t2].zip 2017-04-21 16:13 73 Kb267
Karnov (UK) (1988) (Disk 2 of 2).zip 2017-04-21 16:13 62 Kb281
Karnov (UK) (1988) (Disk 2 of 2) [a1].zip 2017-04-21 16:13 105 Kb277
Karnov (UK) (1988) (Disk 2 of 2) [t2].zip 2017-04-21 16:13 62 Kb312
Kat Trap (E).dsk 2017-04-21 16:13 91 Kb271
Kat Trap (UK) (1987).zip 2017-04-21 16:13 34 Kb280
Keep Yourself Alive (F) (1987).zip 2017-04-21 16:13 19 Kb284
Kenny Dalglish Soccer Manager (E).cdt 2017-04-21 16:13 57 Kb284
Kenny Dalglish Soccer Manager (UK) (1989).zip 2017-04-21 16:13 25 Kb275
Kenny Dalglish Soccer Match (UK) (1990).zip 2017-04-21 16:13 29 Kb274
Kentilla (UK) (1985).zip 2017-04-21 16:13 23 Kb284
Kentilla (UK) (1985) [a1].zip 2017-04-21 16:13 30 Kb280
Kentucky Racing (E).cdt 2017-04-21 16:13 45 Kb282
Kentucky Racing (UK) (1990).zip 2017-04-21 16:13 24 Kb278
Kentucky Racing (UK) (1990) [f1].zip 2017-04-21 16:13 24 Kb284
Kessia (F) (19xx).zip 2017-04-21 16:13 72 Kb275
Kettle (E).dsk 2017-04-21 16:13 193 Kb270
Kettle (UK) (1986).zip 2017-04-21 16:13 21 Kb286
Kevin Thacker's CPC Guide (UK) (19xx) (PD) (Disk 1 of 2).zip 2017-04-21 16:13 47 Kb269
Kevin Thacker's CPC Guide (UK) (19xx) (PD) (Disk 2 of 2).zip 2017-04-21 16:13 41 Kb276
Key Factor, The (UK) (1985).zip 2017-04-21 16:13 13 Kb277
Kick Off (UK,F,G,S,I) (1990).zip 2017-04-21 16:13 27 Kb280
Kick Off (UK,F,G,S,I) (1990) [a1].zip 2017-04-21 16:13 131 Kb276
Kick Off (UK,F,G,S,I) (1990) [a2].zip 2017-04-21 16:13 31 Kb272
Kick Off 2 (E) - Disk 1A.dsk 2017-04-21 16:13 178 Kb284
Kick Off 2 (E) - Disk 1B.dsk 2017-04-21 16:13 178 Kb278
Kick Off 2 (F) (1990).zip 2017-04-21 16:13 68 Kb278
Kick Off 2 (F) (1990) [a1].zip 2017-04-21 16:13 68 Kb278
Kikstart II (UK) (1988).zip 2017-04-21 16:13 24 Kb288
Kikstart II (UK) (1988) [a1].zip 2017-04-21 16:13 23 Kb285
Killapede (UK) (1986).zip 2017-04-21 16:13 26 Kb277
Killapede (UK) (1986) [a1].zip 2017-04-21 16:13 26 Kb272
Killapede (UK) (1986) [a2].zip 2017-04-21 16:13 32 Kb284
Killapede (UK) (1986) [a3].zip 2017-04-21 16:13 30 Kb308
Killed Until Dead (UK) (1987) (Disk 1 of 2).zip 2017-04-21 16:13 50 Kb269
Killed Until Dead (UK) (1987) (Disk 2 of 2).zip 2017-04-21 16:13 62 Kb271
Killer Ball (UK) (1991).zip 2017-04-21 16:14 103 Kb281
Killer Ball (UK) (1991) [a1].zip 2017-04-21 16:13 103 Kb277
Killer Ball (UK) (1991) [a2].zip 2017-04-21 16:13 76 Kb279
Killer Ball (UK) (1991) [a3].zip 2017-04-21 16:13 96 Kb276
Killer Cobra (E).cdt 2017-04-21 16:14 49 Kb276
Killer Cobra (UK) (1987).zip 2017-04-21 16:14 27 Kb283
Killer Cobra (UK) (1987) [a1].zip 2017-04-21 16:14 27 Kb283
Killer Cobra (UK) (1987) [a2].zip 2017-04-21 16:14 31 Kb275
Killer Gorilla & Knight Lore & Laserwarp & Molecule Man & Zaxx (F).zip 2017-04-21 16:14 82 Kb185
Killer Gorilla (UK) (1984).zip 2017-04-21 16:14 19 Kb279
Killer Gorilla (UK) (1984) [a1].zip 2017-04-21 16:14 19 Kb285
Killer Gorilla (UK) (1984) [a2].zip 2017-04-21 16:14 15 Kb291
Killer Gorilla (UK) (1984) [a3].zip 2017-04-21 16:14 18 Kb284
Killer Gorilla (UK) (1984) [b1].zip 2017-04-21 16:14 19 Kb280
Killer Gorilla (UK) (1984) [b2].zip 2017-04-21 16:14 19 Kb281
Killer Ring (UK) (1987).zip 2017-04-21 16:14 16 Kb286
Killer Ring (UK) (1987) [a1].zip 2017-04-21 16:14 16 Kb286
Kiloroid (UK) (19xx).zip 2017-04-21 16:14 2 Kb279
Kim (F) (1986).zip 2017-04-21 16:14 9 Kb284
Kinetic (UK) (1987).zip 2017-04-21 16:14 35 Kb278
Kinetic (UK) (1987) [a1].zip 2017-04-21 16:14 36 Kb283
Kinetic (UK) (1987) [a2].zip 2017-04-21 16:14 35 Kb286
Kinetik (E).dsk 2017-04-21 16:14 195 Kb296
Kingdom of Hamil (UK) (1987).zip 2017-04-21 16:14 57 Kb280
Kingdoms (UK) (1985).zip 2017-04-21 16:14 5 Kb278
Kit de Telechargement - Telecharge Amstrad CPC (F).dsk 2017-04-21 16:14 217 Kb281
Kit de Telechargement pour Amstrad CPC (F).dsk 2017-04-21 16:14 191 Kb293
Klax & Meynaumede (F) & Nervous Break Down (F) & Skweek.zip 2017-04-21 16:14 97 Kb186
Klax (E).dsk 2017-04-21 16:14 172 Kb280
Klax (UK) (1990) (CPM).zip 2017-04-21 16:14 44 Kb270
Klax (UK) (1990) (CPM) [a1].zip 2017-04-21 16:14 44 Kb289
Klax (UK) (1990) (CPM Version).zip 2017-04-21 16:14 43 Kb271
Klax (UK) (1990) (CPM Version) [a1].zip 2017-04-21 16:14 43 Kb279
Klax (UK) (1990) (Cart).zip 2017-04-21 16:14 41 Kb284
Klax (UK) (1990).zip 2017-04-21 16:14 42 Kb275
Klax (UK) (1990) [a1].zip 2017-04-21 16:14 42 Kb285
Klax (UK) (1990) [h1].zip 2017-04-21 16:14 52 Kb274
Klax (UK) (1990) [h2].zip 2017-04-21 16:14 54 Kb284
Knaves and thou Prisoners (UK) (19xx).zip 2017-04-21 16:14 8 Kb268
Knight Force (F) (1989) (Disk 1 of 2).zip 2017-04-21 16:14 54 Kb276
Knight Force (F) (1989) (Disk 1 of 2) [t1].zip 2017-04-21 16:14 55 Kb268
Knight Force (F) (1989) (Disk 1 of 2) [t2] & Power Drift.zip 2017-04-21 16:14 108 Kb172
Knight Force (F) (1989) (Disk 1 of 2) [t2].zip 2017-04-21 16:14 75 Kb267
Knight Force (F) (1989) (Disk 2 of 2).zip 2017-04-21 16:14 76 Kb277
Knight Force (F) - Disk 1A.dsk 2017-04-21 16:14 456 Kb274
Knight Force (F) - Disk 1B.dsk 2017-04-21 16:14 627 Kb274
Knight Games (E) - Side A.cdt 2017-04-21 16:14 166 Kb281
Knight Games (E) - Side B.cdt 2017-04-21 16:14 142 Kb275
Knight Games (UK) (1986) (Disk 1 of 2).zip 2017-04-21 16:14 88 Kb284
Knight Games (UK) (1986) (Disk 1 of 2) [a1].zip 2017-04-21 16:14 83 Kb270
Knight Games (UK) (1986) (Disk 1 of 2) [a2].zip 2017-04-21 16:14 83 Kb273
Knight Games (UK) (1986) (Disk 1 of 2) [a3].zip 2017-04-21 16:14 103 Kb268
Knight Games (UK) (1986) (Disk 2 of 2).zip 2017-04-21 16:14 94 Kb280
Knight Games (UK) (1986) (Disk 2 of 2) [a1].zip 2017-04-21 16:14 76 Kb277
Knight Games (UK) (1986) (Disk 2 of 2) [a2].zip 2017-04-21 16:14 79 Kb273
Knight Games (UK) (1986) (Disk 2 of 2) [a3].zip 2017-04-21 16:14 109 Kb271
Knight Games (UK) (1986) [f1][t1].zip 2017-04-21 16:14 179 Kb273
Knight Lore (E).cdt 2017-04-21 16:14 42 Kb280
Knight Lore (UK) (1984).zip 2017-04-21 16:14 25 Kb294
Knight Lore (UK) (1984) [a1].zip 2017-04-21 16:14 25 Kb271
Knight Lore (UK) (1984) [a2].zip 2017-04-21 16:14 25 Kb284
Knight Moves (F) (19xx) (Disk 1 of 2).zip 2017-04-21 16:14 60 Kb275
Knight Moves (F) (19xx) (Disk 2 of 2).zip 2017-04-21 16:14 83 Kb277
Knight Orc (E) - Disk 1A.dsk 2017-04-21 16:14 194 Kb272
Knight Orc (E) - Disk 1B.dsk 2017-04-21 16:14 199 Kb271
Knight Orc (UK) (1987) (Disk 1 of 2).zip 2017-04-21 16:14 119 Kb285
Knight Orc (UK) (1987) (Disk 2 of 2).zip 2017-04-21 16:14 110 Kb280
Knight Rider (E).cdt 2017-04-21 16:14 45 Kb279
Knight Rider (UK) (1986).zip 2017-04-21 16:14 20 Kb275
Knight Rider (UK) (1986) [h1].zip 2017-04-21 16:14 32 Kb274
Knight Rider (UK) (1986) [h2].zip 2017-04-21 16:14 21 Kb282
Knight Tyme (E).cdt 2017-04-21 16:14 57 Kb281
Knight Tyme (UK) (1986).zip 2017-04-21 16:14 31 Kb287
Knight Tyme (UK) (1986) [a1].zip 2017-04-21 16:14 31 Kb281
Knight Tyme (UK) (1986) [t1].zip 2017-04-21 16:14 31 Kb271
Knightmare (E).dsk 2017-04-21 16:14 213 Kb289
Knightmare (UK) (1987).zip 2017-04-21 16:14 29 Kb277
Knightmare (UK) (1987) [a1].zip 2017-04-21 16:14 30 Kb275
Knightmare (UK) (1987) [a2].zip 2017-04-21 16:14 30 Kb286
Knightmare (UK) (1987) [t1].zip 2017-04-21 16:14 33 Kb277
Know (G).dsk 2017-04-21 16:14 192 Kb294
Kobayashi Naru (UK) (19xx).zip 2017-04-21 16:14 31 Kb289
Kobayashi Naru (UK) (1987).zip 2017-04-21 16:14 31 Kb291
Kobayashi Naru (UK) (1987) [a1].zip 2017-04-21 16:14 31 Kb275
Kobayashi Naru (UK) (1987) [a2].zip 2017-04-21 16:14 48 Kb301
Kokotoni Wilf (UK) (19xx).zip 2017-04-21 16:14 137 Kb288
Kokotoni Wilf (UK) (19xx) [a1].zip 2017-04-21 16:14 35 Kb285
Kokotoni Wilf (UK) (19xx) [f1][t1].zip 2017-04-21 16:14 37 Kb280
Konami's Golf (UK) (1986).zip 2017-04-21 16:14 24 Kb274
Konami's Golf (UK) (1986) [a1].zip 2017-04-21 16:14 24 Kb277
Konami's Golf (UK) (1986) [a2].zip 2017-04-21 16:14 26 Kb286
Konami Coin-op Hits (UK) (19xx) (Disk 1 of 2).zip 2017-04-21 16:14 50 Kb282
Konami Coin-op Hits (UK) (19xx) (Disk 1 of 2) [a1].zip 2017-04-21 16:14 50 Kb269
Konami Coin-op Hits (UK) (19xx) (Disk 2 of 2).zip 2017-04-21 16:14 65 Kb271
Konami Coin-op Hits (UK) (19xx) (Disk 2 of 2) [a1].zip 2017-04-21 16:14 65 Kb289
Konami Coin-op Hits (UK) (19xx) (Disk 2 of 2) [a2].zip 2017-04-21 16:14 65 Kb270
Kong Strikes Back (UK) (1985).zip 2017-04-21 16:14 21 Kb293
Kong Strikes Back (UK) (1985) [a1].zip 2017-04-21 16:14 21 Kb295
Kong Strikes Back (UK) (1985) [a2].zip 2017-04-21 16:14 23 Kb279
Koronis Rift (E).dsk 2017-04-21 16:14 186 Kb275
Koronis Rift (UK) (1987).zip 2017-04-21 16:14 57 Kb283
Krakout (E).cdt 2017-04-21 16:14 64 Kb288
Krakout (E).dsk 2017-04-21 16:14 171 Kb282
Krakout (UK) (1987).zip 2017-04-21 16:14 31 Kb285
Krakout (UK) (1987) [h1].zip 2017-04-21 16:14 34 Kb283
Kristal (F).dsk 2017-04-21 16:14 191 Kb284
Kristal (UK) (1985).zip 2017-04-21 16:14 16 Kb288
Kristax (UK) (1989).zip 2017-04-21 16:14 9 Kb287
Krypton Factor (UK) (1987) (Disk 1 of 2).zip 2017-04-21 16:14 52 Kb273
Krypton Factor (UK) (1987) (Disk 1 of 2) [a1].zip 2017-04-21 16:14 47 Kb283
Krypton Factor (UK) (1987) (Disk 2 of 2).zip 2017-04-21 16:14 5 Kb276
Krypton Factor (UK) (1987) (Disk 2 of 2) [a1].zip 2017-04-21 16:14 21 Kb281
Kung-Fu (UK) (1986).zip 2017-04-21 16:14 19 Kb286
Kung-Fu Master (E).dsk 2017-04-21 16:14 191 Kb276
Kung-Fu Master (UK) (1986).zip 2017-04-21 16:14 28 Kb293
Kung-Fu Master (UK) (1986) [h1].zip 2017-04-21 16:14 22 Kb283
Kwah (UK) (1987).zip 2017-04-21 16:14 36 Kb272
Kwik Snax (E).cdt 2017-04-21 16:14 65 Kb295
Kwik Snax (UK) (1990).zip 2017-04-21 16:14 22 Kb279
Kwik Snax (UK) (1990) [f1].zip 2017-04-21 16:14 33 Kb290
Kwik Snax (UK) (1990) [h1].zip 2017-04-21 16:14 41 Kb280
Kwik Snax (UK) (1990) [t1].zip 2017-04-21 16:14 33 Kb286
kobayashi Naru (E).cdt 2017-04-21 16:14 74 Kb281
180 Files
-JavaCPC -demo -emu -j-cpc_ani -tools 0-9 A B C D E F G H I J K L M N O P Q R S T U V W X Y Z roms